createdAt,value
2019-02-10T00:01:15.921Z,82.37
2019-02-10T00:03:44.446Z,82.81
2019-02-10T00:06:12.851Z,83.22
2019-02-10T00:08:41.298Z,83.36
2019-02-10T00:11:09.801Z,82.83
2019-02-10T00:13:38.227Z,83.27
2019-02-10T00:16:17.121Z,83.24
2019-02-10T00:18:45.546Z,83.76
2019-02-10T00:21:14.083Z,84.18
2019-02-10T00:23:42.755Z,84.69
2019-02-10T00:26:11.327Z,84.93
2019-02-10T00:28:39.741Z,84.97
2019-02-10T00:31:08.367Z,85.15
2019-02-10T00:33:36.769Z,85.04
2019-02-10T00:36:05.278Z,84.95
2019-02-10T00:38:33.733Z,85.19
2019-02-10T00:41:02.214Z,85.58
2019-02-10T00:43:31.113Z,85.56
2019-02-10T00:45:59.571Z,85.61
2019-02-10T00:48:28.034Z,85.64
2019-02-10T00:50:56.536Z,85.48
2019-02-10T00:53:25.019Z,85.29
2019-02-10T00:55:53.460Z,86.13
2019-02-10T00:58:21.919Z,85.93
2019-02-10T01:00:50.421Z,86.04
2019-02-10T01:03:19.290Z,86.11
2019-02-10T01:05:47.740Z,86.67
2019-02-10T01:08:16.123Z,86.33
2019-02-10T01:10:45.567Z,86.79
2019-02-10T01:13:14.013Z,86.58
2019-02-10T01:15:42.424Z,86.24
2019-02-10T01:18:11.454Z,85.95
2019-02-10T01:20:39.979Z,85.93
2019-02-10T01:23:08.460Z,85.81
2019-02-10T01:25:36.879Z,86.11
2019-02-10T01:28:05.520Z,86.04
2019-02-10T01:30:34.095Z,86.18
2019-02-10T01:33:02.560Z,86.47
2019-02-10T01:35:31.621Z,87.20
2019-02-10T01:38:00.066Z,87.49
2019-02-10T01:40:28.490Z,87.38
2019-02-10T01:42:56.946Z,87.53
2019-02-10T01:45:25.444Z,87.25
2019-02-10T01:47:53.903Z,88.20
2019-02-10T01:50:22.385Z,87.66
2019-02-10T01:52:50.833Z,87.47
2019-02-10T01:55:19.248Z,88.26
2019-02-10T01:57:47.731Z,88.13
2019-02-10T02:00:17.142Z,87.80
2019-02-10T02:02:45.724Z,88.26
2019-02-10T02:05:14.551Z,87.74
2019-02-10T02:07:43.073Z,87.51
2019-02-10T02:10:13.191Z,87.07
2019-02-10T02:12:42.021Z,87.15
2019-02-10T02:15:13.399Z,87.72
2019-02-10T02:17:44.158Z,87.60
2019-02-10T02:20:13.872Z,88.11
2019-02-10T02:22:42.453Z,88.42
2019-02-10T02:25:12.440Z,89.16
2019-02-10T02:27:40.947Z,89.71
2019-02-10T02:30:12.259Z,89.33
2019-02-10T02:32:40.708Z,89.28
2019-02-10T02:35:09.255Z,89.73
2019-02-10T02:37:37.944Z,89.92
2019-02-10T02:40:09.111Z,90.34
2019-02-10T02:42:37.704Z,90.58
2019-02-10T02:45:08.671Z,90.83
2019-02-10T02:47:37.093Z,91.31
2019-02-10T02:50:07.862Z,91.36
2019-02-10T02:52:36.289Z,91.33
2019-02-10T02:55:06.456Z,91.52
2019-02-10T02:57:34.956Z,91.37
2019-02-10T03:00:03.531Z,91.31
2019-02-10T03:02:31.937Z,91.28
2019-02-10T03:05:00.897Z,91.32
2019-02-10T03:07:29.326Z,91.19
2019-02-10T03:09:57.833Z,91.09
2019-02-10T03:12:26.315Z,91.62
2019-02-10T03:14:54.720Z,91.12
2019-02-10T03:17:23.158Z,91.70
2019-02-10T03:19:51.597Z,91.54
2019-02-10T03:22:20.061Z,92.03
2019-02-10T03:24:48.476Z,91.58
2019-02-10T03:27:16.942Z,91.73
2019-02-10T03:29:45.406Z,91.97
2019-02-10T03:32:13.865Z,92.60
2019-02-10T03:34:42.373Z,92.27
2019-02-10T03:37:10.875Z,92.53
2019-02-10T03:39:39.306Z,93.04
2019-02-10T03:42:08.139Z,92.79
2019-02-10T03:44:36.689Z,92.43
2019-02-10T03:47:05.179Z,92.46
2019-02-10T03:49:33.651Z,92.34
2019-02-10T03:52:02.136Z,92.28
2019-02-10T03:54:30.716Z,92.23
2019-02-10T03:56:59.318Z,91.70
2019-02-10T03:59:27.791Z,91.69
2019-02-10T04:01:56.287Z,91.94
2019-02-10T04:04:24.769Z,91.65
2019-02-10T04:06:53.174Z,91.55
2019-02-10T04:09:22.032Z,91.25
2019-02-10T04:11:50.474Z,91.11
2019-02-10T04:14:18.968Z,91.96
2019-02-10T04:16:47.414Z,92.04
2019-02-10T04:19:15.869Z,92.69
2019-02-10T04:21:44.316Z,92.73
2019-02-10T04:24:12.828Z,92.68
2019-02-10T04:26:41.307Z,93.13
2019-02-10T04:29:09.772Z,92.76
2019-02-10T04:31:38.249Z,92.98
2019-02-10T04:34:06.659Z,92.66
2019-02-10T04:36:35.255Z,92.49
2019-02-10T04:39:04.828Z,92.27
2019-02-10T04:41:33.255Z,92.09
2019-02-10T04:44:01.713Z,92.07
2019-02-10T04:46:30.134Z,91.60
2019-02-10T04:48:58.569Z,91.03
2019-02-10T04:51:27.015Z,91.06
2019-02-10T04:53:55.441Z,91.14
2019-02-10T04:56:23.877Z,91.60
2019-02-10T04:58:52.380Z,91.07
2019-02-10T05:01:20.851Z,91.76
2019-02-10T05:03:49.322Z,91.38
2019-02-10T05:06:17.772Z,91.28
2019-02-10T05:08:46.217Z,91.90
2019-02-10T05:11:14.969Z,92.06
2019-02-10T05:13:43.465Z,92.30
2019-02-10T05:16:11.921Z,91.92
2019-02-10T05:18:40.348Z,92.22
2019-02-10T05:21:08.808Z,92.96
2019-02-10T05:23:37.505Z,92.75
2019-02-10T05:26:05.915Z,92.36
2019-02-10T05:28:34.363Z,93.31
2019-02-10T05:31:02.816Z,92.85
2019-02-10T05:33:31.235Z,93.09
2019-02-10T05:35:59.821Z,92.82
2019-02-10T05:38:28.266Z,92.96
2019-02-10T05:40:56.694Z,92.93
2019-02-10T05:43:25.182Z,93.63
2019-02-10T05:45:53.615Z,93.98
2019-02-10T05:48:22.115Z,94.69
2019-02-10T05:50:50.556Z,95.26
2019-02-10T05:53:19.055Z,95.78
2019-02-10T05:55:47.575Z,96.15
2019-02-10T05:58:16.123Z,96.36
2019-02-10T06:00:44.543Z,96.78
2019-02-10T06:03:13.001Z,97.04
2019-02-10T06:05:41.402Z,97.36
2019-02-10T06:08:13.533Z,97.66
2019-02-10T06:10:40.056Z,98.14
2019-02-10T06:13:08.467Z,98.02
2019-02-10T06:15:36.931Z,98.66
2019-02-10T06:18:05.363Z,100.00
2019-02-10T06:20:33.785Z,100.00
2019-02-10T06:23:02.296Z,100.00
2019-02-10T06:25:30.783Z,100.00
2019-02-10T06:27:59.248Z,100.00
2019-02-10T06:30:27.776Z,100.00
2019-02-10T06:32:56.299Z,100.00
2019-02-10T06:35:24.741Z,100.00
2019-02-10T06:37:53.293Z,100.00
2019-02-10T06:40:21.751Z,100.00
2019-02-10T06:42:50.182Z,100.00
2019-02-10T06:45:18.718Z,100.00
2019-02-10T06:47:47.194Z,100.00
2019-02-10T06:50:15.630Z,100.00
2019-02-10T06:52:44.076Z,100.00
2019-02-10T06:55:13.029Z,100.00
2019-02-10T06:57:41.497Z,100.00
2019-02-10T07:00:19.171Z,100.00
2019-02-10T07:03:24.911Z,100.00
2019-02-10T07:05:53.353Z,100.00
2019-02-10T07:08:21.845Z,100.00
2019-02-10T07:10:50.340Z,100.00
2019-02-10T07:13:21.977Z,100.00
2019-02-10T07:16:26.798Z,100.00
2019-02-10T07:19:31.552Z,100.00
2019-02-10T07:22:01.057Z,100.00
2019-02-10T07:24:41.376Z,100.00
2019-02-10T07:27:15.621Z,100.00
2019-02-10T07:30:05.246Z,100.00
2019-02-10T07:32:51.450Z,100.00
2019-02-10T07:35:54.429Z,100.00
2019-02-10T07:38:28.566Z,100.00
2019-02-10T07:41:00.104Z,100.00
2019-02-10T07:43:34.309Z,100.00
2019-02-10T07:46:05.850Z,100.00
2019-02-10T07:48:43.066Z,100.00
2019-02-10T07:51:14.575Z,100.00
2019-02-10T07:53:46.135Z,100.00
2019-02-10T07:56:29.565Z,100.00
2019-02-10T07:59:06.697Z,100.00
2019-02-10T08:01:47.329Z,100.00
2019-02-10T08:04:35.265Z,100.00
2019-02-10T08:07:32.530Z,100.00
2019-02-10T08:10:04.056Z,100.00
2019-02-10T08:12:55.047Z,100.00
2019-02-10T08:15:47.509Z,100.00
2019-02-10T08:18:24.943Z,100.00
2019-02-10T08:21:11.509Z,100.00
2019-02-10T08:23:52.206Z,100.00
2019-02-10T08:26:35.000Z,100.00
2019-02-10T08:29:23.061Z,100.00
2019-02-10T08:32:23.079Z,100.00
2019-02-10T08:35:06.799Z,100.00
2019-02-10T08:37:53.453Z,100.00
2019-02-10T08:40:44.307Z,100.00
2019-02-10T08:43:33.575Z,100.00
2019-02-10T08:46:27.637Z,100.00
2019-02-10T08:49:01.807Z,100.00
2019-02-10T08:51:33.354Z,100.00
2019-02-10T08:54:01.884Z,100.00
2019-02-10T08:56:30.352Z,100.00
2019-02-10T08:58:58.847Z,100.00
2019-02-10T09:01:27.385Z,100.00
2019-02-10T09:03:55.943Z,100.00
2019-02-10T09:06:24.435Z,100.00
2019-02-10T09:08:52.983Z,100.00
2019-02-10T09:11:21.413Z,100.00
2019-02-10T09:13:49.859Z,100.00
2019-02-10T09:16:18.317Z,100.00
2019-02-10T09:18:46.933Z,100.00
2019-02-10T09:21:15.425Z,100.00
2019-02-10T09:23:43.929Z,100.00
2019-02-10T09:26:12.372Z,100.00
2019-02-10T09:28:40.876Z,100.00
2019-02-10T09:31:09.616Z,100.00
2019-02-10T09:33:38.041Z,100.00
2019-02-10T09:36:06.724Z,100.00
2019-02-10T09:38:35.781Z,100.00
2019-02-10T09:41:07.118Z,100.00
2019-02-10T09:43:35.763Z,100.00
2019-02-10T09:46:04.343Z,100.00
2019-02-10T09:48:32.906Z,100.00
2019-02-10T09:51:01.413Z,100.00
2019-02-10T09:53:29.845Z,100.00
2019-02-10T09:55:58.875Z,100.00
2019-02-10T09:58:27.331Z,100.00
2019-02-10T10:00:55.827Z,100.00
2019-02-10T10:03:24.447Z,100.00
2019-02-10T10:05:53.226Z,100.00
2019-02-10T10:08:21.633Z,100.00
2019-02-10T10:10:51.818Z,100.00
2019-02-10T10:13:20.278Z,100.00
2019-02-10T10:15:48.801Z,100.00
2019-02-10T10:18:17.662Z,100.00
2019-02-10T10:20:46.139Z,100.00
2019-02-10T10:23:14.631Z,100.00
2019-02-10T10:25:43.323Z,100.00
2019-02-10T10:28:12.018Z,100.00
2019-02-10T10:30:40.977Z,100.00
2019-02-10T10:33:09.419Z,100.00
2019-02-10T10:35:37.955Z,100.00
2019-02-10T10:38:06.434Z,100.00
2019-02-10T10:40:35.023Z,100.00
2019-02-10T10:43:03.476Z,100.00
2019-02-10T10:45:31.956Z,100.00
2019-02-10T10:48:00.437Z,100.00
2019-02-10T10:50:28.899Z,100.00
2019-02-10T10:52:57.528Z,100.00
2019-02-10T10:55:26.213Z,100.00
2019-02-10T10:57:54.824Z,100.00
2019-02-10T11:00:23.423Z,100.00
2019-02-10T11:02:51.955Z,100.00
2019-02-10T11:05:20.439Z,100.00
2019-02-10T11:07:48.897Z,100.00
2019-02-10T11:10:17.542Z,100.00
2019-02-10T11:12:46.116Z,100.00
2019-02-10T11:15:16.961Z,100.00
2019-02-10T11:17:45.294Z,100.00
2019-02-10T11:20:14.182Z,100.00
2019-02-10T11:22:42.588Z,99.30
2019-02-10T11:25:11.844Z,100.00
2019-02-10T11:27:40.250Z,100.00
2019-02-10T11:30:13.648Z,100.00
2019-02-10T11:32:42.168Z,98.61
2019-02-10T11:35:10.715Z,98.34
2019-02-10T11:37:39.486Z,98.33
2019-02-10T11:40:10.546Z,97.88
2019-02-10T11:42:38.943Z,100.00
2019-02-10T11:45:13.215Z,96.37
2019-02-10T11:47:43.477Z,96.97
2019-02-10T11:50:17.437Z,99.08
2019-02-10T11:52:45.886Z,97.97
2019-02-10T11:55:14.372Z,95.91
2019-02-10T11:57:42.797Z,95.88
2019-02-10T12:00:16.695Z,95.81
2019-02-10T12:02:45.122Z,95.91
2019-02-10T12:05:13.562Z,95.79
2019-02-10T12:07:41.989Z,97.59
2019-02-10T12:10:11.645Z,95.17
2019-02-10T12:12:40.105Z,96.11
2019-02-10T12:15:13.703Z,96.64
2019-02-10T12:17:42.108Z,95.39
2019-02-10T12:20:14.414Z,97.54
2019-02-10T12:22:49.813Z,97.31
2019-02-10T12:25:13.106Z,95.87
2019-02-10T12:27:41.538Z,98.02
2019-02-10T12:30:13.200Z,96.93
2019-02-10T12:32:41.686Z,96.75
2019-02-10T12:35:11.447Z,96.66
2019-02-10T12:37:39.927Z,97.36
2019-02-10T12:40:09.775Z,98.09
2019-02-10T12:42:38.191Z,99.29
2019-02-10T12:45:09.600Z,100.00
2019-02-10T12:47:38.071Z,99.51
2019-02-10T12:50:09.681Z,98.67
2019-02-10T12:52:38.117Z,100.00
2019-02-10T12:55:08.001Z,100.00
2019-02-10T12:57:36.413Z,100.00
2019-02-10T13:00:11.219Z,100.00
2019-02-10T13:02:39.626Z,100.00
2019-02-10T13:05:08.313Z,100.00
2019-02-10T13:07:36.745Z,100.00
2019-02-10T13:10:10.976Z,100.00
2019-02-10T13:12:39.447Z,100.00
2019-02-10T13:15:09.786Z,100.00
2019-02-10T13:17:38.204Z,100.00
2019-02-10T13:20:09.703Z,100.00
2019-02-10T13:22:38.132Z,100.00
2019-02-10T13:25:09.213Z,100.00
2019-02-10T13:27:37.641Z,100.00
2019-02-10T13:30:09.458Z,100.00
2019-02-10T13:32:37.880Z,100.00
2019-02-10T13:35:06.803Z,100.00
2019-02-10T13:37:35.241Z,100.00
2019-02-10T13:40:05.965Z,100.00
2019-02-10T13:42:35.503Z,100.00
2019-02-10T13:45:08.673Z,100.00
2019-02-10T13:47:37.106Z,100.00
2019-02-10T13:50:11.111Z,100.00
2019-02-10T13:52:39.533Z,100.00
2019-02-10T13:55:10.973Z,100.00
2019-02-10T13:57:39.395Z,100.00
2019-02-10T14:00:19.378Z,100.00
2019-02-10T14:02:47.794Z,100.00
2019-02-10T14:05:16.278Z,100.00
2019-02-10T14:07:45.805Z,100.00
2019-02-10T14:10:15.940Z,100.00
2019-02-10T14:12:44.760Z,100.00
2019-02-10T14:15:17.339Z,100.00
2019-02-10T14:17:45.888Z,100.00
2019-02-10T14:20:19.295Z,100.00
2019-02-10T14:22:47.800Z,100.00
2019-02-10T14:25:17.654Z,100.00
2019-02-10T14:27:46.140Z,100.00
2019-02-10T14:30:17.823Z,100.00
2019-02-10T14:32:46.272Z,100.00
2019-02-10T14:35:14.712Z,100.00
2019-02-10T14:37:43.159Z,100.00
2019-02-10T14:40:12.364Z,100.00
2019-02-10T14:42:40.956Z,100.00
2019-02-10T14:45:16.384Z,100.00
2019-02-10T14:47:44.787Z,100.00
2019-02-10T14:50:23.677Z,100.00
2019-02-10T14:52:53.674Z,100.00
2019-02-10T14:55:22.080Z,100.00
2019-02-10T14:57:50.658Z,100.00
2019-02-10T15:00:19.048Z,100.00
2019-02-10T15:02:47.484Z,100.00
2019-02-10T15:05:15.906Z,100.00
2019-02-10T15:07:44.310Z,100.00
2019-02-10T15:10:22.942Z,100.00
2019-02-10T15:12:51.475Z,100.00
2019-02-10T15:15:19.957Z,100.00
2019-02-10T15:17:48.404Z,100.00
2019-02-10T15:20:16.861Z,100.00
2019-02-10T15:22:45.866Z,100.00
2019-02-10T15:25:14.849Z,100.00
2019-02-10T15:27:45.171Z,100.00
2019-02-10T15:30:14.900Z,99.87
2019-02-10T15:32:43.298Z,99.61
2019-02-10T15:35:12.299Z,100.00
2019-02-10T15:37:41.113Z,100.00
2019-02-10T15:40:11.647Z,100.00
2019-02-10T15:42:40.102Z,100.00
2019-02-10T15:45:12.572Z,100.00
2019-02-10T15:47:41.064Z,100.00
2019-02-10T15:50:11.630Z,100.00
2019-02-10T15:52:40.046Z,100.00
2019-02-10T15:55:13.758Z,100.00
2019-02-10T15:57:42.275Z,100.00
2019-02-10T16:00:19.807Z,100.00
2019-02-10T16:02:48.512Z,100.00
2019-02-10T16:05:17.284Z,100.00
2019-02-10T16:07:45.689Z,100.00
2019-02-10T16:10:14.393Z,100.00
2019-02-10T16:12:42.941Z,100.00
2019-02-10T16:15:12.750Z,100.00
2019-02-10T16:17:41.196Z,100.00
2019-02-10T16:20:14.397Z,100.00
2019-02-10T16:22:42.834Z,100.00
2019-02-10T16:25:11.562Z,100.00
2019-02-10T16:27:39.957Z,100.00
2019-02-10T16:30:14.260Z,100.00
2019-02-10T16:32:49.670Z,99.60
2019-02-10T16:35:13.086Z,99.09
2019-02-10T16:37:41.565Z,98.31
2019-02-10T16:40:16.138Z,97.25
2019-02-10T16:42:44.706Z,95.24
2019-02-10T16:45:14.065Z,95.18
2019-02-10T16:47:42.624Z,95.46
2019-02-10T16:50:16.126Z,95.64
2019-02-10T16:52:44.541Z,95.11
2019-02-10T16:55:15.891Z,95.45
2019-02-10T16:57:44.362Z,94.84
2019-02-10T17:00:16.215Z,94.61
2019-02-10T17:02:44.709Z,95.43
2019-02-10T17:05:13.600Z,95.33
2019-02-10T17:07:42.086Z,95.89
2019-02-10T17:10:15.472Z,95.52
2019-02-10T17:12:43.878Z,95.52
2019-02-10T17:15:13.362Z,95.68
2019-02-10T17:17:41.790Z,95.42
2019-02-10T17:20:14.960Z,95.18
2019-02-10T17:22:43.420Z,95.39
2019-02-10T17:25:17.993Z,95.07
2019-02-10T17:27:46.423Z,95.50
2019-02-10T17:30:16.025Z,96.15
2019-02-10T17:32:44.443Z,95.61
2019-02-10T17:35:14.302Z,95.68
2019-02-10T17:37:42.723Z,96.39
2019-02-10T17:40:23.092Z,95.58
2019-02-10T17:42:51.581Z,95.27
2019-02-10T17:45:20.030Z,95.28
2019-02-10T17:47:48.479Z,94.97
2019-02-10T17:50:16.920Z,95.43
2019-02-10T17:52:45.454Z,94.75
2019-02-10T17:55:13.900Z,94.68
2019-02-10T17:57:42.341Z,95.81
2019-02-10T18:00:17.033Z,94.98
2019-02-10T18:02:45.633Z,94.92
2019-02-10T18:05:14.119Z,94.43
2019-02-10T18:07:42.519Z,95.41
2019-02-10T18:10:13.596Z,95.63
2019-02-10T18:12:42.271Z,95.93
2019-02-10T18:15:13.290Z,96.12
2019-02-10T18:17:49.241Z,97.42
2019-02-10T18:20:28.196Z,97.88
2019-02-10T18:22:58.351Z,98.27
2019-02-10T18:25:44.624Z,98.19
2019-02-10T18:28:20.441Z,98.80
2019-02-10T18:30:56.247Z,98.89
2019-02-10T18:33:35.119Z,98.88
2019-02-10T18:36:23.467Z,98.93
2019-02-10T18:38:53.530Z,98.50
2019-02-10T18:41:23.611Z,98.24
2019-02-10T18:44:05.404Z,98.24
2019-02-10T18:46:38.275Z,99.43
2019-02-10T18:49:14.126Z,99.21
2019-02-10T18:51:59.528Z,100.00
2019-02-10T18:54:32.798Z,100.00
2019-02-10T18:57:19.030Z,100.00
2019-02-10T18:59:57.586Z,100.00
2019-02-10T19:02:30.444Z,100.00
2019-02-10T19:05:00.524Z,100.00
2019-02-10T19:07:30.583Z,100.00
2019-02-10T19:10:06.122Z,99.98
2019-02-10T19:12:38.709Z,99.74
2019-02-10T19:15:15.604Z,99.45
2019-02-10T19:17:51.384Z,99.29
2019-02-10T19:20:37.233Z,99.05
2019-02-10T19:23:07.298Z,98.53
2019-02-10T19:25:40.124Z,97.15
2019-02-10T19:28:10.162Z,97.16
2019-02-10T19:30:40.210Z,96.19
2019-02-10T19:33:16.016Z,97.37
2019-02-10T19:35:49.141Z,97.69
2019-02-10T19:38:19.187Z,97.85
2019-02-10T19:40:49.276Z,97.11
2019-02-10T19:43:31.210Z,98.31
2019-02-10T19:46:01.306Z,97.87
2019-02-10T19:48:31.420Z,100.00
2019-02-10T19:51:07.307Z,99.88
2019-02-10T19:53:43.027Z,100.00
2019-02-10T19:56:15.678Z,100.00
2019-02-10T19:58:51.656Z,100.00
2019-02-10T20:01:21.678Z,100.00
2019-02-10T20:04:03.710Z,100.00
2019-02-10T20:06:36.490Z,100.00
2019-02-10T20:09:07.992Z,100.00
2019-02-10T20:11:44.017Z,100.00
2019-02-10T20:14:14.151Z,100.00
2019-02-10T20:16:55.925Z,100.00
2019-02-10T20:19:31.569Z,100.00
2019-02-10T20:22:01.803Z,100.00
2019-02-10T20:24:31.847Z,100.00
2019-02-10T20:27:10.976Z,100.00
2019-02-10T20:29:43.720Z,100.00
2019-02-10T20:32:22.862Z,100.00
2019-02-10T20:34:55.898Z,100.00
2019-02-10T20:37:42.794Z,100.00
2019-02-10T20:40:28.087Z,100.00
2019-02-10T20:43:07.121Z,100.00
2019-02-10T20:45:39.695Z,100.00
2019-02-10T20:48:12.566Z,100.00
2019-02-10T20:50:48.695Z,100.00
2019-02-10T20:53:18.772Z,100.00
2019-02-10T20:55:48.852Z,100.00
2019-02-10T20:58:27.750Z,100.00
2019-02-10T21:00:57.798Z,100.00
2019-02-10T21:03:36.663Z,100.00
2019-02-10T21:06:15.440Z,100.00
2019-02-10T21:08:48.499Z,100.00
2019-02-10T21:11:18.638Z,100.00
2019-02-10T21:13:48.773Z,100.00
2019-02-10T21:16:24.578Z,100.00
2019-02-10T21:18:54.726Z,100.00
2019-02-10T21:21:30.582Z,100.00
2019-02-10T21:24:03.740Z,100.00
2019-02-10T21:26:33.775Z,100.00
2019-02-10T21:29:18.844Z,100.00
2019-02-10T21:31:48.902Z,100.00
2019-02-10T21:34:18.982Z,100.00
2019-02-10T21:36:49.043Z,100.00
2019-02-10T21:39:21.678Z,100.00
2019-02-10T21:41:57.261Z,100.00
2019-02-10T21:44:27.332Z,100.00
2019-02-10T21:46:57.397Z,100.00
2019-02-10T21:49:25.836Z,100.00
2019-02-10T21:51:54.261Z,100.00
2019-02-10T21:54:23.023Z,100.00
2019-02-10T21:56:51.435Z,100.00
2019-02-10T21:59:19.890Z,100.00
2019-02-10T22:01:48.301Z,100.00
2019-02-10T22:04:16.699Z,100.00
2019-02-10T22:06:45.142Z,100.00
2019-02-10T22:09:13.543Z,100.00
2019-02-10T22:11:41.952Z,100.00
2019-02-10T22:14:13.336Z,100.00
2019-02-10T22:16:41.733Z,100.00
2019-02-10T22:19:10.190Z,100.00
2019-02-10T22:21:38.603Z,100.00
2019-02-10T22:24:07.091Z,100.00
2019-02-10T22:26:35.549Z,100.00
2019-02-10T22:29:04.015Z,100.00
2019-02-10T22:31:32.447Z,100.00
2019-02-10T22:34:00.900Z,100.00
2019-02-10T22:36:29.317Z,100.00
2019-02-10T22:38:57.763Z,100.00
2019-02-10T22:41:26.214Z,100.00
2019-02-10T22:43:54.688Z,100.00
2019-02-10T22:46:23.131Z,100.00
2019-02-10T22:48:51.573Z,100.00
2019-02-10T22:51:19.989Z,100.00
2019-02-10T22:53:48.432Z,100.00
2019-02-10T22:56:16.880Z,100.00
2019-02-10T22:58:45.328Z,100.00
2019-02-10T23:01:14.271Z,100.00
2019-02-10T23:03:42.697Z,100.00
2019-02-10T23:06:11.611Z,100.00
2019-02-10T23:08:40.045Z,100.00
2019-02-10T23:11:16.055Z,100.00
2019-02-10T23:13:45.077Z,100.00
2019-02-10T23:16:13.479Z,100.00
2019-02-10T23:18:41.981Z,100.00
2019-02-10T23:21:10.505Z,100.00
2019-02-10T23:23:39.001Z,100.00
2019-02-10T23:26:07.424Z,100.00
2019-02-10T23:28:35.927Z,100.00
2019-02-10T23:31:04.406Z,100.00
2019-02-10T23:33:32.928Z,100.00
2019-02-10T23:36:01.373Z,100.00
2019-02-10T23:38:29.800Z,100.00
2019-02-10T23:40:58.255Z,100.00
2019-02-10T23:43:26.655Z,100.00
2019-02-10T23:45:55.076Z,100.00
2019-02-10T23:48:23.532Z,100.00
2019-02-10T23:50:52.080Z,100.00
2019-02-10T23:53:20.527Z,100.00
2019-02-10T23:55:49.029Z,100.00
2019-02-10T23:58:17.507Z,100.00
